Time;durP1;ratioP1;P1;durP2;ratioP2;P2;SDS_P1;SDS_P2;PMS_P1;PMS_P2;Temp;Humidity;BMP_temperature;BMP_pressure;BME280_temperature;BME280_humidity;BME280_pressure;Samples;Min_cycle;Max_cycle;Signal;HPM_P1;HPM_P2
2021/12/31 00:00:27;;;;;;;4.22;2.50;;;15.70;83.50;;;;;;5067605;28;20392;-73
2021/12/31 00:02:53;;;;;;;3.05;2.50;;;15.70;83.50;;;;;;5069657;28;20377;-69
2021/12/31 00:05:20;;;;;;;4.30;2.42;;;15.70;83.60;;;;;;5069784;28;20037;-69
2021/12/31 00:07:46;;;;;;;4.00;2.83;;;15.80;83.60;;;;;;5086958;28;20032;-70
2021/12/31 00:10:13;;;;;;;4.93;2.50;;;15.70;83.60;;;;;;5071158;28;20025;-70
2021/12/31 00:12:43;;;;;;;5.55;2.22;;;15.70;83.40;;;;;;5070421;28;20040;-70
2021/12/31 00:15:10;;;;;;;4.97;2.60;;;15.70;83.40;;;;;;5068936;28;20135;-70
2021/12/31 00:17:36;;;;;;;4.65;2.38;;;15.70;83.30;;;;;;5070907;28;20033;-71
2021/12/31 00:20:08;;;;;;;3.53;2.20;;;15.70;83.20;;;;;;5079025;28;20021;-71
2021/12/31 00:25:07;;;;;;;3.08;2.15;;;15.70;83.10;;;;;;5075976;28;20032;-69
2021/12/31 00:27:34;;;;;;;3.40;2.20;;;15.60;82.90;;;;;;5075465;28;20131;-70
2021/12/31 00:30:00;;;;;;;3.17;2.10;;;15.60;82.90;;;;;;5076135;28;20059;-72
2021/12/31 00:32:26;;;;;;;2.75;2.03;;;15.60;82.80;;;;;;5075805;28;20027;-71
2021/12/31 00:34:52;;;;;;;4.53;1.92;;;15.60;82.70;;;;;;5078539;28;20050;-72
2021/12/31 00:37:33;;;;;;;3.90;2.00;;;15.60;82.70;;;;;;5074690;28;20029;-71
2021/12/31 00:40:00;;;;;;;3.85;2.08;;;15.50;82.60;;;;;;5076954;28;20017;-72
2021/12/31 00:42:26;;;;;;;2.72;1.70;;;15.40;82.80;;;;;;5071282;28;20465;-71
2021/12/31 00:44:52;;;;;;;3.42;2.03;;;15.40;82.70;;;;;;5079429;28;20034;-72
2021/12/31 00:47:19;;;;;;;2.20;1.65;;;15.50;82.70;;;;;;5077490;28;20469;-70
2021/12/31 00:49:45;;;;;;;3.15;1.50;;;15.40;82.50;;;;;;5078479;28;20036;-71
2021/12/31 00:52:12;;;;;;;4.90;1.75;;;15.40;82.60;;;;;;5081479;28;20047;-73
2021/12/31 00:54:39;;;;;;;3.72;1.85;;;15.40;82.50;;;;;;5076465;28;20090;-73
2021/12/31 00:57:06;;;;;;;2.20;1.48;;;15.40;82.50;;;;;;5080065;28;20086;-71
2021/12/31 00:59:36;;;;;;;2.40;1.60;;;15.30;82.40;;;;;;5078598;28;20025;-73
2021/12/31 01:02:05;;;;;;;2.65;1.75;;;15.30;82.40;;;;;;5077508;28;20474;-72
2021/12/31 01:04:34;;;;;;;2.65;1.40;;;15.30;82.20;;;;;;5081389;28;20024;-72
2021/12/31 01:07:02;;;;;;;2.65;1.40;;;15.30;82.20;;;;;;5083516;28;20039;-72
2021/12/31 01:09:29;;;;;;;2.22;1.40;;;15.30;82.00;;;;;;5071579;28;20068;-72
2021/12/31 01:11:56;;;;;;;2.28;1.38;;;15.30;82.00;;;;;;5059749;28;20052;-73
2021/12/31 01:17:01;;;;;;;1.85;1.35;;;15.10;82.00;;;;;;5079336;28;20025;-71
2021/12/31 01:21:55;;;;;;;2.97;1.65;;;15.00;82.30;;;;;;5078668;28;20025;-70
2021/12/31 01:24:25;;;;;;;2.97;1.50;;;15.00;82.40;;;;;;5076435;28;20039;-70
2021/12/31 01:26:51;;;;;;;2.40;1.60;;;15.00;82.50;;;;;;5078878;28;20040;-71
2021/12/31 01:29:16;;;;;;;4.15;1.50;;;15.00;82.50;;;;;;5074654;28;20032;-72
2021/12/31 01:31:42;;;;;;;2.63;1.45;;;14.90;82.60;;;;;;5072426;28;20402;-72
2021/12/31 01:34:08;;;;;;;2.25;1.33;;;14.90;82.60;;;;;;5076426;28;20024;-71
2021/12/31 01:36:34;;;;;;;2.50;1.52;;;14.90;82.50;;;;;;5076058;28;20476;-71
2021/12/31 01:39:00;;;;;;;2.53;1.27;;;14.90;82.50;;;;;;5072829;28;20548;-73
2021/12/31 01:41:25;;;;;;;2.53;1.70;;;14.90;82.40;;;;;;5073093;28;20028;-71
2021/12/31 01:43:52;;;;;;;4.03;1.70;;;14.90;82.40;;;;;;5071743;28;20052;-71
2021/12/31 01:46:20;;;;;;;2.50;1.63;;;14.90;82.30;;;;;;5068951;28;20038;-71
2021/12/31 01:49:04;;;;;;;2.42;1.70;;;14.80;82.50;;;;;;5072037;28;20055;-72
2021/12/31 01:51:30;;;;;;;3.53;1.70;;;14.80;82.60;;;;;;5072514;28;20024;-71
2021/12/31 01:53:56;;;;;;;2.67;1.50;;;14.80;82.50;;;;;;5073102;28;20028;-72
2021/12/31 01:56:24;;;;;;;2.10;1.23;;;14.80;82.40;;;;;;5070467;28;20025;-68
2021/12/31 01:58:55;;;;;;;2.72;1.50;;;14.80;82.40;;;;;;5072858;28;20032;-70
2021/12/31 02:01:22;;;;;;;5.40;1.45;;;14.80;82.40;;;;;;5072462;28;20051;-69
2021/12/31 02:03:50;;;;;;;3.10;1.40;;;14.70;82.20;;;;;;5090394;28;20062;-72
2021/12/31 02:06:16;;;;;;;2.03;1.40;;;14.70;82.40;;;;;;5090172;28;20032;-71
2021/12/31 02:08:42;;;;;;;1.88;1.20;;;14.70;82.40;;;;;;5081134;28;20035;-72
2021/12/31 02:11:08;;;;;;;1.73;1.17;;;14.70;82.30;;;;;;5091913;28;20052;-72
2021/12/31 02:13:35;;;;;;;2.55;1.50;;;14.60;82.40;;;;;;5090502;28;20052;-71
2021/12/31 02:16:02;;;;;;;2.42;1.40;;;14.60;82.30;;;;;;5084812;28;20418;-73
2021/12/31 02:18:30;;;;;;;2.63;1.58;;;14.60;82.50;;;;;;5080357;28;20340;-71
2021/12/31 02:20:57;;;;;;;2.58;1.30;;;14.60;82.60;;;;;;5086202;28;20028;-69
2021/12/31 02:23:26;;;;;;;2.30;1.33;;;14.60;82.60;;;;;;5067876;28;20070;-67
2021/12/31 02:25:53;;;;;;;1.65;1.00;;;14.60;82.50;;;;;;5073198;28;20037;-71
2021/12/31 02:28:19;;;;;;;2.03;1.35;;;14.50;82.60;;;;;;5083314;28;20036;-71
2021/12/31 02:30:46;;;;;;;3.03;1.60;;;14.50;82.50;;;;;;5084940;28;20119;-71
2021/12/31 02:33:12;;;;;;;1.75;1.23;;;14.60;82.40;;;;;;5072795;28;20108;-71
2021/12/31 02:35:38;;;;;;;2.45;1.17;;;14.60;82.40;;;;;;5079051;28;20503;-73
2021/12/31 02:38:05;;;;;;;2.50;1.25;;;14.60;82.30;;;;;;5085557;28;20024;-72
2021/12/31 02:40:32;;;;;;;1.73;1.23;;;14.60;82.00;;;;;;5070590;28;20029;-71
2021/12/31 02:42:59;;;;;;;2.55;1.30;;;14.70;81.90;;;;;;5089255;28;20520;-73
2021/12/31 02:45:30;;;;;;;2.88;1.33;;;14.60;81.70;;;;;;5078993;28;20040;-68
2021/12/31 02:47:59;;;;;;;2.53;1.45;;;14.60;81.40;;;;;;5089511;28;20031;-74
2021/12/31 02:50:33;;;;;;;1.63;1.20;;;14.60;81.10;;;;;;5088971;28;20020;-68
2021/12/31 02:53:00;;;;;;;2.45;1.00;;;14.70;81.10;;;;;;5088162;28;20618;-71
2021/12/31 02:55:30;;;;;;;1.40;1.00;;;14.70;80.90;;;;;;5072112;28;20061;-72
2021/12/31 02:57:57;;;;;;;1.77;0.90;;;14.70;80.60;;;;;;5067972;28;20036;-72
2021/12/31 03:00:23;;;;;;;1.38;0.88;;;14.70;80.30;;;;;;5076235;28;20099;-72
2021/12/31 03:02:49;;;;;;;1.70;0.93;;;14.70;79.70;;;;;;5082992;28;20078;-72
2021/12/31 03:05:16;;;;;;;2.60;1.10;;;14.70;80.10;;;;;;5073371;28;20024;-73
2021/12/31 03:07:46;;;;;;;2.70;1.08;;;14.70;80.20;;;;;;5087568;28;20727;-72
2021/12/31 03:10:13;;;;;;;1.35;0.90;;;14.60;80.40;;;;;;5072960;28;20031;-71
2021/12/31 03:12:40;;;;;;;1.52;0.80;;;14.60;80.40;;;;;;5084841;28;20028;-71
2021/12/31 03:15:08;;;;;;;1.83;1.10;;;14.70;80.60;;;;;;5086124;28;20025;-71
2021/12/31 03:17:34;;;;;;;2.25;1.10;;;14.60;80.80;;;;;;5077764;28;20051;-71
2021/12/31 03:20:10;;;;;;;1.20;0.90;;;14.60;80.80;;;;;;5080347;28;20028;-70
2021/12/31 03:22:37;;;;;;;3.67;0.90;;;14.60;81.00;;;;;;5085071;28;20357;-71
2021/12/31 03:25:21;;;;;;;2.85;1.15;;;14.60;81.00;;;;;;5091089;28;20396;-71
2021/12/31 03:27:47;;;;;;;3.30;1.48;;;14.60;81.10;;;;;;5080389;28;20101;-70
2021/12/31 03:30:15;;;;;;;3.58;1.38;;;14.60;81.10;;;;;;5090209;28;20032;-70
2021/12/31 03:32:41;;;;;;;1.38;0.90;;;14.60;81.30;;;;;;5086935;28;20157;-70
2021/12/31 03:35:07;;;;;;;4.25;1.17;;;14.60;81.40;;;;;;5078865;28;20482;-70
2021/12/31 03:37:33;;;;;;;1.73;1.00;;;14.60;81.40;;;;;;5078212;28;20080;-71
2021/12/31 03:39:58;;;;;;;5.40;1.20;;;14.60;81.30;;;;;;5072119;28;20090;-71
2021/12/31 03:42:24;;;;;;;1.85;1.02;;;14.60;81.00;;;;;;5081695;28;20106;-71
2021/12/31 03:44:50;;;;;;;2.75;1.10;;;14.60;81.10;;;;;;5070608;28;20419;-71
2021/12/31 03:47:15;;;;;;;1.25;1.00;;;14.60;81.10;;;;;;5070612;28;20550;-70
2021/12/31 03:49:41;;;;;;;1.58;1.13;;;14.60;81.30;;;;;;5069936;28;20044;-73
2021/12/31 03:52:07;;;;;;;1.90;1.10;;;14.60;81.10;;;;;;5080788;28;20077;-72
2021/12/31 03:54:33;;;;;;;2.90;1.05;;;14.60;81.90;;;;;;5087997;28;20044;-71
2021/12/31 03:56:59;;;;;;;1.92;1.23;;;14.60;81.30;;;;;;5083616;28;20075;-70
2021/12/31 03:59:25;;;;;;;3.15;1.10;;;14.60;81.40;;;;;;5070038;28;20052;-67
2021/12/31 04:01:51;;;;;;;1.48;1.02;;;14.60;81.30;;;;;;5074749;28;20033;-71
2021/12/31 04:04:16;;;;;;;2.63;1.38;;;14.60;81.20;;;;;;5081517;28;20067;-73
2021/12/31 04:06:42;;;;;;;1.33;0.95;;;14.70;81.00;;;;;;5077576;28;20032;-71
2021/12/31 04:09:08;;;;;;;2.25;1.08;;;14.70;80.70;;;;;;5083378;28;20381;-70
2021/12/31 04:11:34;;;;;;;3.22;1.27;;;14.70;80.50;;;;;;5070307;28;20056;-72
2021/12/31 04:13:59;;;;;;;3.42;1.10;;;14.70;80.30;;;;;;5070685;28;20032;-70
2021/12/31 04:16:25;;;;;;;1.60;0.95;;;14.70;80.20;;;;;;5071760;28;20496;-66
2021/12/31 04:18:51;;;;;;;2.60;1.42;;;14.80;80.10;;;;;;5088233;28;20137;-71
2021/12/31 04:21:19;;;;;;;2.63;1.10;;;14.80;79.90;;;;;;5075852;28;20377;-70
2021/12/31 04:24:28;;;;;;;2.03;1.10;;;14.80;79.70;;;;;;5068282;28;20108;-69
2021/12/31 04:26:34;;;;;;;2.95;1.20;;;14.80;79.40;;;;;;5067739;28;20415;-71
2021/12/31 04:29:00;;;;;;;1.92;1.10;;;14.80;79.30;;;;;;5080639;28;20037;-71
2021/12/31 04:31:25;;;;;;;2.20;1.30;;;14.90;79.00;;;;;;5083699;28;20054;-66
2021/12/31 04:33:51;;;;;;;4.60;1.45;;;14.90;79.00;;;;;;5088369;28;20370;-70
2021/12/31 04:36:17;;;;;;;2.38;1.20;;;14.90;78.90;;;;;;5082188;28;20055;-70
2021/12/31 04:38:43;;;;;;;5.07;1.23;;;14.90;78.50;;;;;;5089526;28;20110;-72
2021/12/31 04:41:08;;;;;;;1.58;1.20;;;14.90;78.60;;;;;;5082074;28;20043;-72
2021/12/31 04:43:34;;;;;;;2.67;1.45;;;14.80;78.80;;;;;;5072567;28;20465;-71
2021/12/31 04:46:00;;;;;;;2.67;1.60;;;14.80;78.90;;;;;;5086828;28;20472;-71
2021/12/31 04:48:25;;;;;;;2.40;1.25;;;14.80;79.00;;;;;;5088026;28;20020;-67
2021/12/31 04:51:09;;;;;;;2.88;1.30;;;14.80;79.10;;;;;;5076639;28;20545;-71
2021/12/31 04:53:35;;;;;;;1.70;1.30;;;14.80;78.90;;;;;;5072499;28;20108;-70
2021/12/31 04:56:01;;;;;;;1.90;1.33;;;14.90;78.80;;;;;;5069130;28;20162;-71
2021/12/31 04:58:26;;;;;;;1.90;1.20;;;14.90;78.70;;;;;;5068175;28;20029;-70
2021/12/31 05:00:52;;;;;;;1.92;1.30;;;14.90;78.60;;;;;;5078762;28;20388;-72
2021/12/31 05:03:19;;;;;;;1.60;1.25;;;14.90;78.40;;;;;;5082831;28;20036;-69
2021/12/31 05:05:45;;;;;;;3.65;1.20;;;14.90;78.30;;;;;;5071777;28;20081;-69
2021/12/31 05:08:11;;;;;;;2.13;1.25;;;15.00;78.10;;;;;;5075213;28;20036;-70
2021/12/31 05:10:37;;;;;;;1.83;1.30;;;14.90;77.90;;;;;;5073485;28;20102;-69
2021/12/31 05:13:04;;;;;;;2.58;1.48;;;14.90;77.90;;;;;;5076780;28;20076;-70
2021/12/31 05:15:37;;;;;;;2.47;1.27;;;14.90;77.90;;;;;;5080489;28;20027;-70
2021/12/31 05:18:03;;;;;;;1.77;1.27;;;14.90;78.00;;;;;;5074266;28;20024;-71
2021/12/31 05:20:29;;;;;;;3.55;1.65;;;14.90;78.20;;;;;;5078284;28;20093;-70
2021/12/31 05:22:57;;;;;;;2.00;1.50;;;14.90;78.00;;;;;;5077992;28;20031;-72
2021/12/31 05:25:23;;;;;;;2.83;1.50;;;14.90;78.10;;;;;;5085399;28;20035;-72
2021/12/31 05:27:49;;;;;;;2.30;1.50;;;14.90;77.90;;;;;;5074119;28;20028;-72
2021/12/31 05:30:15;;;;;;;2.50;1.65;;;14.90;77.90;;;;;;5088826;28;20480;-71
2021/12/31 05:32:41;;;;;;;3.67;2.10;;;14.90;77.90;;;;;;5076744;28;20040;-72
2021/12/31 05:35:07;;;;;;;2.17;1.73;;;14.90;77.90;;;;;;5074338;28;20485;-73
2021/12/31 05:37:33;;;;;;;2.28;1.70;;;14.90;78.00;;;;;;5073775;28;20040;-71
2021/12/31 05:39:59;;;;;;;2.75;1.90;;;14.90;78.20;;;;;;5080581;28;20039;-72
2021/12/31 05:42:25;;;;;;;2.55;2.05;;;14.90;78.20;;;;;;5091898;28;20035;-72
2021/12/31 05:44:50;;;;;;;4.20;2.40;;;14.90;78.00;;;;;;5082448;28;20446;-72
2021/12/31 05:47:16;;;;;;;5.68;2.20;;;14.90;77.90;;;;;;5077662;28;20471;-72
2021/12/31 05:52:26;;;;;;;2.30;1.98;;;14.90;77.60;;;;;;5085355;28;20086;-68
2021/12/31 05:54:52;;;;;;;3.33;1.70;;;14.90;77.40;;;;;;5073128;28;20028;-71
2021/12/31 05:57:17;;;;;;;3.83;2.58;;;15.00;77.30;;;;;;5072419;28;20065;-69
2021/12/31 05:59:43;;;;;;;3.10;2.30;;;14.90;77.30;;;;;;5074868;28;20419;-71
2021/12/31 06:02:09;;;;;;;2.75;2.10;;;15.00;77.30;;;;;;5075481;28;20464;-71
2021/12/31 06:04:36;;;;;;;2.70;2.00;;;15.00;77.30;;;;;;5087515;28;20116;-71
2021/12/31 06:07:01;;;;;;;3.60;2.25;;;15.00;77.20;;;;;;5083348;28;20027;-70
2021/12/31 06:09:29;;;;;;;3.95;2.42;;;15.00;77.10;;;;;;5090433;28;20030;-67
2021/12/31 06:11:55;;;;;;;3.22;2.10;;;15.10;77.10;;;;;;5083755;28;20036;-71
2021/12/31 06:14:21;;;;;;;3.65;2.30;;;15.10;77.00;;;;;;5081890;28;20036;-69
2021/12/31 06:16:48;;;;;;;3.25;2.40;;;15.10;76.90;;;;;;5079256;28;20525;-71
2021/12/31 06:19:14;;;;;;;3.05;2.60;;;15.10;76.90;;;;;;5072164;28;20032;-70
2021/12/31 06:21:41;;;;;;;3.00;2.50;;;15.10;76.80;;;;;;5084957;28;20024;-71
2021/12/31 06:24:07;;;;;;;5.40;2.72;;;15.00;76.60;;;;;;5090238;28;20028;-70
2021/12/31 06:26:34;;;;;;;3.15;2.45;;;15.00;76.70;;;;;;5078786;28;20043;-71
2021/12/31 06:29:00;;;;;;;5.70;2.40;;;15.00;76.70;;;;;;5072854;28;20032;-69
2021/12/31 06:31:25;;;;;;;3.35;2.10;;;15.00;76.60;;;;;;5073118;28;20033;-69
2021/12/31 06:33:51;;;;;;;2.70;2.10;;;15.00;76.60;;;;;;5077512;28;20029;-72
2021/12/31 06:36:19;;;;;;;2.85;2.05;;;14.90;76.50;;;;;;5071333;28;20032;-70
2021/12/31 06:38:45;;;;;;;2.72;1.75;;;15.00;76.40;;;;;;5068566;28;20035;-72
2021/12/31 06:41:11;;;;;;;3.42;1.80;;;14.90;76.40;;;;;;5072752;28;20059;-71
2021/12/31 06:43:37;;;;;;;2.75;2.00;;;14.90;76.30;;;;;;5074014;28;20028;-71
2021/12/31 06:46:03;;;;;;;3.72;2.05;;;15.00;76.50;;;;;;5070177;28;20040;-71
2021/12/31 06:48:29;;;;;;;2.13;1.92;;;15.00;76.40;;;;;;5071276;28;20041;-72
2021/12/31 06:50:55;;;;;;;3.88;2.20;;;15.00;76.40;;;;;;5071053;28;20445;-71
2021/12/31 06:53:20;;;;;;;4.00;2.42;;;15.00;76.20;;;;;;5102969;28;20032;-71
2021/12/31 06:55:46;;;;;;;3.47;2.50;;;15.10;76.10;;;;;;5070676;28;20032;-70
2021/12/31 06:58:12;;;;;;;4.85;2.83;;;15.20;76.10;;;;;;5068708;28;20070;-67
2021/12/31 07:00:38;;;;;;;4.70;2.92;;;15.20;75.90;;;;;;5069782;28;20063;-71
2021/12/31 07:03:11;;;;;;;5.15;2.67;;;15.30;75.70;;;;;;5067875;28;20048;-68
2021/12/31 07:05:40;;;;;;;5.82;3.28;;;15.30;75.60;;;;;;5068459;28;20044;-73
2021/12/31 07:08:06;;;;;;;3.97;2.88;;;15.40;75.50;;;;;;5069860;28;20523;-72
2021/12/31 07:10:31;;;;;;;3.42;2.95;;;15.50;75.30;;;;;;5068859;28;20048;-72
2021/12/31 07:12:59;;;;;;;8.77;3.03;;;15.50;74.80;;;;;;5068889;28;20040;-70
2021/12/31 07:15:25;;;;;;;5.75;2.95;;;15.50;74.70;;;;;;5066690;28;20728;-73
2021/12/31 07:17:52;;;;;;;5.10;3.10;;;15.50;74.40;;;;;;5063814;28;20112;-69
2021/12/31 07:20:19;;;;;;;4.10;2.88;;;15.60;74.30;;;;;;5066068;28;20066;-70
2021/12/31 07:22:45;;;;;;;4.97;2.78;;;15.60;74.00;;;;;;5067457;28;20543;-72
2021/12/31 07:25:11;;;;;;;3.53;2.97;;;15.60;73.90;;;;;;5073564;28;20028;-71
2021/12/31 07:27:36;;;;;;;3.83;2.75;;;15.70;73.70;;;;;;5071095;28;20441;-72
2021/12/31 07:30:03;;;;;;;5.18;3.25;;;15.70;73.70;;;;;;5072155;28;20036;-71
2021/12/31 07:32:29;;;;;;;4.57;2.95;;;15.70;73.40;;;;;;5071285;28;20313;-73
2021/12/31 07:34:55;;;;;;;4.00;2.40;;;15.80;73.40;;;;;;5067960;28;20067;-71
2021/12/31 07:37:20;;;;;;;4.40;2.85;;;15.80;73.30;;;;;;5067500;28;20087;-72
2021/12/31 07:39:48;;;;;;;3.70;2.60;;;15.80;73.10;;;;;;5068497;28;20089;-72
2021/12/31 07:42:14;;;;;;;5.10;3.00;;;16.00;72.90;;;;;;5066875;28;20060;-74
2021/12/31 07:44:40;;;;;;;4.53;2.50;;;16.00;72.80;;;;;;5069393;28;20036;-73
2021/12/31 07:47:06;;;;;;;6.18;3.17;;;16.00;72.60;;;;;;5067748;28;20425;-71
2021/12/31 07:49:32;;;;;;;5.50;3.22;;;16.00;72.50;;;;;;5084922;28;20036;-72
2021/12/31 07:51:57;;;;;;;4.88;2.50;;;16.10;72.20;;;;;;5070463;28;20021;-72
2021/12/31 07:54:23;;;;;;;5.15;3.35;;;16.00;72.20;;;;;;5071323;28;20089;-72
2021/12/31 07:56:49;;;;;;;4.00;2.92;;;16.00;72.00;;;;;;5071587;28;20028;-73
2021/12/31 07:59:14;;;;;;;5.88;3.00;;;16.10;71.90;;;;;;5082515;28;20032;-71
2021/12/31 08:01:40;;;;;;;8.13;3.60;;;16.10;71.60;;;;;;5075983;28;20032;-65
2021/12/31 08:04:06;;;;;;;4.97;3.65;;;16.20;71.30;;;;;;5077621;28;20034;-63
2021/12/31 08:06:32;;;;;;;6.00;3.90;;;16.20;71.30;;;;;;5073541;28;20119;-65
2021/12/31 08:08:57;;;;;;;4.10;3.10;;;16.40;71.30;;;;;;5069381;28;20077;-64
2021/12/31 08:11:23;;;;;;;6.35;3.53;;;16.50;70.80;;;;;;5070148;28;20048;-63
2021/12/31 08:13:49;;;;;;;5.68;3.45;;;16.60;70.20;;;;;;5070595;28;20430;-64
2021/12/31 08:16:15;;;;;;;4.30;3.35;;;16.80;69.70;;;;;;5069885;28;20032;-66
2021/12/31 08:18:40;;;;;;;4.70;3.28;;;16.90;69.10;;;;;;5069448;28;20048;-64
2021/12/31 08:21:07;;;;;;;4.85;3.08;;;16.90;68.60;;;;;;5069313;28;20020;-64
2021/12/31 08:23:33;;;;;;;5.55;2.95;;;17.10;68.40;;;;;;5069084;28;20032;-64
2021/12/31 08:26:01;;;;;;;4.93;3.13;;;17.10;68.00;;;;;;5070330;28;20427;-64
2021/12/31 08:28:27;;;;;;;6.55;3.67;;;17.10;67.90;;;;;;5081584;28;20024;-64
2021/12/31 08:30:53;;;;;;;4.95;3.40;;;17.10;67.20;;;;;;5071286;28;20117;-64
2021/12/31 08:33:18;;;;;;;4.60;2.85;;;17.10;67.30;;;;;;5073503;28;20020;-63
2021/12/31 08:35:44;;;;;;;5.00;2.88;;;17.20;67.10;;;;;;5072699;28;20066;-64
2021/12/31 08:38:10;;;;;;;5.10;2.97;;;17.30;67.10;;;;;;5084616;28;20056;-64
2021/12/31 08:40:36;;;;;;;4.03;2.70;;;17.30;66.40;;;;;;5094816;28;20016;-64
2021/12/31 08:43:02;;;;;;;4.38;2.75;;;17.40;65.80;;;;;;5094069;28;20032;-64
2021/12/31 08:45:29;;;;;;;3.92;2.70;;;17.50;65.80;;;;;;5090475;28;20069;-63
2021/12/31 08:47:57;;;;;;;3.28;2.60;;;17.70;65.00;;;;;;5091686;28;20044;-64
2021/12/31 08:50:23;;;;;;;3.80;2.47;;;17.90;64.80;;;;;;5071405;28;20082;-64
2021/12/31 08:52:49;;;;;;;3.40;2.20;;;18.00;63.80;;;;;;5073818;28;20083;-63
2021/12/31 08:55:14;;;;;;;4.93;3.13;;;18.00;63.40;;;;;;5073636;28;20029;-65
2021/12/31 08:57:40;;;;;;;5.30;2.83;;;18.00;63.70;;;;;;5073539;28;20075;-63
2021/12/31 09:00:07;;;;;;;4.32;2.97;;;18.00;63.70;;;;;;5084858;28;20024;-63
2021/12/31 09:02:35;;;;;;;5.65;3.55;;;18.10;63.60;;;;;;5091729;28;20279;-64
2021/12/31 09:05:01;;;;;;;3.72;2.28;;;18.20;63.50;;;;;;5073293;28;20060;-64
2021/12/31 09:07:27;;;;;;;3.45;2.50;;;18.20;62.50;;;;;;5071077;28;20033;-64
2021/12/31 09:09:53;;;;;;;5.10;2.85;;;18.20;62.30;;;;;;5073192;28;20055;-65
2021/12/31 09:12:19;;;;;;;3.85;2.40;;;18.20;62.00;;;;;;5084991;28;20079;-64
2021/12/31 09:14:45;;;;;;;4.53;2.55;;;18.20;61.60;;;;;;5094066;28;20055;-64
2021/12/31 09:17:10;;;;;;;3.35;2.15;;;18.20;62.00;;;;;;5093921;28;20107;-65
2021/12/31 09:19:36;;;;;;;4.65;2.38;;;18.30;61.60;;;;;;5092817;28;20069;-65
2021/12/31 09:22:04;;;;;;;4.20;2.30;;;18.40;60.80;;;;;;5109513;28;20020;-65
2021/12/31 09:24:32;;;;;;;4.82;2.38;;;18.50;60.70;;;;;;5085619;28;20481;-64
2021/12/31 09:26:59;;;;;;;4.28;2.22;;;18.60;60.10;;;;;;5073174;28;20025;-67
2021/12/31 09:29:25;;;;;;;3.42;2.10;;;18.70;59.80;;;;;;5072316;28;20028;-65
2021/12/31 09:31:51;;;;;;;3.20;1.60;;;18.80;59.80;;;;;;5070273;28;20029;-65
2021/12/31 09:34:17;;;;;;;2.88;1.55;;;18.80;58.30;;;;;;5068889;28;20032;-62
2021/12/31 09:36:43;;;;;;;4.25;2.30;;;18.90;58.40;;;;;;5084449;28;20049;-70
2021/12/31 09:39:09;;;;;;;2.63;1.75;;;18.90;58.50;;;;;;5083294;28;20115;-73
2021/12/31 09:41:35;;;;;;;10.13;3.85;;;18.90;58.30;;;;;;5077546;28;20490;-68
2021/12/31 09:44:01;;;;;;;2.75;1.80;;;19.00;58.10;;;;;;5092632;28;20016;-69
2021/12/31 09:46:27;;;;;;;3.17;1.80;;;19.00;57.90;;;;;;5086660;28;20166;-69
2021/12/31 09:49:12;;;;;;;3.10;2.33;;;19.10;57.60;;;;;;5073109;28;20392;-69
2021/12/31 09:51:42;;;;;;;2.33;1.52;;;19.30;55.90;;;;;;5078972;28;20465;-69
2021/12/31 09:54:08;;;;;;;2.33;1.52;;;19.40;55.20;;;;;;5085004;28;20138;-69
2021/12/31 09:56:39;;;;;;;6.38;1.70;;;19.20;55.50;;;;;;5073377;28;20254;-68
2021/12/31 09:59:05;;;;;;;1.13;0.90;;;19.30;54.40;;;;;;5077718;28;20025;-69
2021/12/31 10:01:31;;;;;;;1.00;0.70;;;19.20;54.10;;;;;;5072724;28;20484;-69
2021/12/31 10:04:00;;;;;;;2.30;1.00;;;19.00;53.50;;;;;;5082693;28;20070;-69
2021/12/31 10:06:27;;;;;;;1.58;1.00;;;19.00;54.40;;;;;;5068662;28;20055;-69
2021/12/31 10:08:57;;;;;;;1.25;0.98;;;18.90;53.80;;;;;;5074038;28;20028;-68
2021/12/31 10:11:26;;;;;;;1.55;0.90;;;18.80;53.70;;;;;;5071551;28;20044;-69
2021/12/31 10:13:57;;;;;;;3.17;1.10;;;18.70;54.30;;;;;;5071930;28;20040;-70
2021/12/31 10:16:29;;;;;;;3.83;1.30;;;18.70;54.10;;;;;;5070080;28;20396;-68
2021/12/31 10:19:16;;;;;;;1.75;1.38;;;18.80;54.10;;;;;;5068738;28;20036;-69
2021/12/31 10:21:51;;;;;;;1.75;1.00;;;18.80;53.00;;;;;;5066971;28;20486;-69
2021/12/31 10:24:25;;;;;;;2.85;1.25;;;18.90;53.10;;;;;;5069052;28;20086;-68
2021/12/31 10:26:57;;;;;;;3.58;1.10;;;19.00;52.30;;;;;;5069184;28;20131;-69
2021/12/31 10:29:24;;;;;;;2.67;1.88;;;19.00;52.20;;;;;;5069613;28;20123;-68
2021/12/31 10:31:52;;;;;;;5.30;1.45;;;19.10;52.20;;;;;;5069117;28;20033;-70
2021/12/31 10:34:37;;;;;;;1.70;1.10;;;19.10;52.80;;;;;;5070854;28;20476;-67
2021/12/31 10:37:15;;;;;;;1.45;1.25;;;19.20;51.60;;;;;;5067623;28;20028;-68
2021/12/31 10:39:41;;;;;;;3.92;1.30;;;19.50;51.20;;;;;;5069507;28;20059;-69
2021/12/31 10:42:08;;;;;;;2.95;1.70;;;20.10;50.30;;;;;;5070410;28;20028;-70
2021/12/31 10:44:46;;;;;;;1.48;1.20;;;20.60;50.10;;;;;;5103340;27;20323;-70
2021/12/31 10:47:21;;;;;;;2.42;1.10;;;21.10;48.40;;;;;;5083213;28;20112;-70
2021/12/31 10:50:02;;;;;;;3.45;2.20;;;20.90;47.40;;;;;;5072073;28;20028;-71
2021/12/31 10:52:35;;;;;;;3.22;1.48;;;20.40;48.70;;;;;;5052341;28;20028;-68
2021/12/31 10:55:17;;;;;;;5.22;1.20;;;20.10;49.90;;;;;;5068327;28;20592;-68
2021/12/31 10:57:44;;;;;;;4.10;1.20;;;19.80;50.70;;;;;;5069708;28;20028;-71
2021/12/31 11:00:11;;;;;;;2.90;1.58;;;19.50;52.50;;;;;;5069434;28;20035;-68
2021/12/31 11:02:56;;;;;;;7.57;3.28;;;19.30;52.20;;;;;;5068574;28;20021;-71
2021/12/31 11:05:22;;;;;;;5.57;1.25;;;19.10;53.10;;;;;;5065074;28;20023;-69
2021/12/31 11:07:50;;;;;;;2.65;1.30;;;19.00;53.90;;;;;;5070180;28;20021;-72
2021/12/31 11:10:16;;;;;;;1.98;1.40;;;18.90;54.30;;;;;;5069210;28;20103;-69
2021/12/31 11:12:48;;;;;;;1.90;1.40;;;18.80;54.80;;;;;;5070714;28;20208;-70
2021/12/31 11:15:15;;;;;;;4.30;1.65;;;18.80;55.40;;;;;;5067495;28;20028;-72
2021/12/31 11:17:41;;;;;;;2.22;1.40;;;19.00;55.50;;;;;;5057512;28;20132;-71
2021/12/31 11:20:08;;;;;;;3.80;1.90;;;19.30;54.70;;;;;;5066849;28;20020;-70
2021/12/31 11:22:35;;;;;;;2.65;1.70;;;19.40;54.50;;;;;;5062538;28;20043;-69
2021/12/31 11:25:24;;;;;;;5.13;1.50;;;19.20;54.70;;;;;;5067411;28;20440;-71
2021/12/31 11:27:52;;;;;;;3.90;1.70;;;19.20;55.50;;;;;;5065989;28;20115;-73
2021/12/31 11:33:20;;;;;;;4.25;2.28;;;19.80;55.30;;;;;;5067433;28;20035;-74
2021/12/31 11:36:02;;;;;;;6.07;2.20;;;20.40;53.30;;;;;;5068160;28;20410;-72
2021/12/31 11:38:27;;;;;;;2.00;1.48;;;20.20;52.50;;;;;;5065739;28;20124;-72
2021/12/31 11:41:03;;;;;;;4.03;1.70;;;20.00;53.50;;;;;;5069667;28;20512;-73
2021/12/31 11:43:48;;;;;;;2.53;1.70;;;19.80;53.90;;;;;;5066830;28;20044;-72
2021/12/31 11:46:19;;;;;;;2.15;1.58;;;19.60;53.90;;;;;;5069935;28;20048;-73
2021/12/31 11:51:13;;;;;;;3.03;1.42;;;19.20;55.20;;;;;;5070123;28;20036;-72
2021/12/31 11:53:58;;;;;;;4.85;1.90;;;19.10;55.20;;;;;;5068187;28;20036;-74
2021/12/31 11:56:51;;;;;;;3.08;1.98;;;19.10;55.40;;;;;;5048951;28;20182;-73
2021/12/31 11:59:16;;;;;;;2.65;1.60;;;19.00;55.60;;;;;;5060170;28;20028;-69
2021/12/31 12:01:48;;;;;;;2.08;1.40;;;19.00;55.30;;;;;;5069651;28;20048;-72
2021/12/31 12:04:35;;;;;;;2.70;1.55;;;18.80;55.40;;;;;;5067690;28;20041;-72
2021/12/31 12:07:15;;;;;;;1.55;1.10;;;18.80;55.40;;;;;;5049789;28;20024;-73
2021/12/31 12:09:44;;;;;;;2.85;1.38;;;18.70;56.40;;;;;;5047281;28;20045;-71
2021/12/31 12:12:26;;;;;;;2.22;1.30;;;18.60;56.40;;;;;;5067628;28;20109;-72
2021/12/31 12:14:56;;;;;;;8.30;3.40;;;18.60;56.00;;;;;;5065775;28;20032;-72
2021/12/31 12:17:45;;;;;;;2.35;1.50;;;18.60;56.30;;;;;;5063005;28;20177;-72
2021/12/31 12:20:18;;;;;;;5.13;3.22;;;18.60;56.70;;;;;;5066795;28;20097;-70
2021/12/31 12:22:53;;;;;;;5.68;1.52;;;18.50;56.50;;;;;;5081809;28;20059;-72
2021/12/31 12:25:24;;;;;;;2.53;1.70;;;18.50;56.70;;;;;;5063467;28;20013;-68
2021/12/31 12:27:58;;;;;;;3.25;2.25;;;18.40;57.00;;;;;;5065732;28;20032;-73
2021/12/31 12:30:25;;;;;;;4.38;1.67;;;18.40;57.30;;;;;;5067797;28;20024;-74
2021/12/31 12:33:08;;;;;;;6.40;2.40;;;18.40;57.50;;;;;;5064888;28;20032;-71
2021/12/31 12:35:38;;;;;;;2.97;1.70;;;18.50;57.50;;;;;;5062139;28;20065;-73
2021/12/31 12:38:11;;;;;;;3.05;1.40;;;18.30;57.80;;;;;;5062181;28;20038;-74
2021/12/31 12:41:02;;;;;;;2.70;1.80;;;18.30;58.10;;;;;;5065338;28;20086;-73
2021/12/31 12:43:32;;;;;;;2.55;1.20;;;18.30;58.10;;;;;;5062491;28;20051;-73
2021/12/31 12:46:06;;;;;;;3.10;1.83;;;18.20;58.40;;;;;;5066381;28;20127;-71
2021/12/31 12:48:49;;;;;;;5.97;1.48;;;18.20;58.40;;;;;;5069080;28;20040;-73
2021/12/31 12:51:24;;;;;;;2.03;1.10;;;18.10;58.20;;;;;;5064609;28;20043;-72
2021/12/31 12:53:51;;;;;;;2.40;1.20;;;18.00;58.40;;;;;;5062309;28;20066;-72
2021/12/31 12:56:23;;;;;;;3.78;1.33;;;17.90;58.70;;;;;;5065358;28;20491;-70
2021/12/31 12:58:54;;;;;;;3.20;1.50;;;17.90;58.70;;;;;;5068012;28;20178;-72
2021/12/31 13:01:43;;;;;;;3.55;1.30;;;17.90;58.70;;;;;;5072751;28;20362;-71
2021/12/31 13:04:11;;;;;;;2.80;1.73;;;17.90;58.60;;;;;;5056194;28;20037;-69
2021/12/31 13:06:39;;;;;;;3.17;1.50;;;17.90;58.80;;;;;;5069810;28;20032;-69
2021/12/31 13:09:15;;;;;;;1.90;1.10;;;18.00;58.60;;;;;;5073821;28;20086;-71